createdAt,value
2022-12-05T00:01:18.597Z,39.60
2022-12-05T00:03:46.566Z,27.13
2022-12-05T00:06:13.839Z,34.60
2022-12-05T00:08:41.200Z,32.88
2022-12-05T00:11:13.277Z,37.72
2022-12-05T00:13:41.216Z,31.15
2022-12-05T00:16:09.785Z,38.15
2022-12-05T00:18:37.414Z,32.60
2022-12-05T00:21:05.102Z,30.85
2022-12-05T00:23:32.293Z,34.53
2022-12-05T00:26:02.656Z,36.20
2022-12-05T00:28:30.029Z,36.80
2022-12-05T00:30:57.350Z,31.02
2022-12-05T00:33:24.476Z,33.53
2022-12-05T00:35:51.655Z,36.80
2022-12-05T00:38:18.805Z,37.28
2022-12-05T00:40:46.002Z,36.45
2022-12-05T00:43:13.221Z,35.95
2022-12-05T00:45:40.572Z,36.95
2022-12-05T00:48:07.819Z,40.47
2022-12-05T00:50:35.017Z,36.28
2022-12-05T00:53:02.308Z,32.95
2022-12-05T00:55:29.578Z,33.13
2022-12-05T00:57:56.678Z,39.20
2022-12-05T01:00:23.875Z,33.88
2022-12-05T01:02:51.060Z,25.15
2022-12-05T01:05:18.306Z,26.88
2022-12-05T01:07:45.508Z,34.22
2022-12-05T01:10:12.851Z,32.72
2022-12-05T01:12:39.962Z,27.30
2022-12-05T01:15:07.488Z,29.23
2022-12-05T01:17:35.869Z,38.05
2022-12-05T01:20:03.311Z,35.42
2022-12-05T01:22:30.474Z,37.53
2022-12-05T01:24:58.205Z,28.15
2022-12-05T01:27:25.463Z,38.47
2022-12-05T01:29:52.771Z,39.97
2022-12-05T01:32:20.189Z,28.23
2022-12-05T01:34:47.499Z,33.95
2022-12-05T01:37:14.748Z,39.17
2022-12-05T01:39:41.967Z,40.67
2022-12-05T01:42:09.125Z,27.85
2022-12-05T01:44:36.340Z,30.33
2022-12-05T01:47:03.543Z,28.25
2022-12-05T01:49:38.247Z,30.63
2022-12-05T01:52:09.818Z,31.95
2022-12-05T01:54:37.838Z,40.22
2022-12-05T01:57:07.423Z,37.22
2022-12-05T01:59:37.102Z,35.90
2022-12-05T02:02:04.899Z,32.53
2022-12-05T02:04:34.954Z,28.90
2022-12-05T02:07:02.178Z,26.20
2022-12-05T02:09:29.316Z,33.60
2022-12-05T02:11:59.030Z,32.08
2022-12-05T02:14:45.082Z,40.88
2022-12-05T02:17:27.582Z,33.90
2022-12-05T02:20:08.658Z,35.58
2022-12-05T02:22:45.103Z,34.65
2022-12-05T02:25:20.879Z,34.00
2022-12-05T02:28:08.465Z,30.80
2022-12-05T02:30:50.621Z,34.78
2022-12-05T02:33:24.239Z,26.48
2022-12-05T02:35:56.153Z,27.77
2022-12-05T02:38:32.549Z,29.50
2022-12-05T02:41:04.091Z,34.65
2022-12-05T02:43:34.447Z,34.38
2022-12-05T02:46:03.986Z,30.85
2022-12-05T02:48:31.869Z,32.00
2022-12-05T02:51:00.018Z,32.75
2022-12-05T02:53:28.267Z,32.28
2022-12-05T02:55:56.035Z,33.55
2022-12-05T02:58:31.575Z,32.65
2022-12-05T03:00:59.525Z,33.05
2022-12-05T03:03:27.979Z,31.38
2022-12-05T03:06:00.668Z,32.08
2022-12-05T03:08:30.383Z,30.27
2022-12-05T03:10:59.348Z,31.98
2022-12-05T03:13:28.659Z,31.70
2022-12-05T03:16:02.218Z,33.90
2022-12-05T03:18:36.450Z,31.67
2022-12-05T03:21:06.247Z,25.08
2022-12-05T03:23:35.879Z,30.70
2022-12-05T03:26:21.837Z,28.52
2022-12-05T03:28:52.073Z,30.85
2022-12-05T03:31:21.874Z,32.55
2022-12-05T03:33:51.261Z,29.85
2022-12-05T03:36:24.483Z,33.53
2022-12-05T03:38:53.428Z,32.70
2022-12-05T03:41:24.582Z,34.95
2022-12-05T03:44:13.976Z,34.75
2022-12-05T03:46:41.187Z,29.90
2022-12-05T03:49:14.853Z,31.42
2022-12-05T03:51:52.868Z,32.08
2022-12-05T03:54:25.858Z,31.60
2022-12-05T03:57:03.445Z,32.17
2022-12-05T03:59:33.727Z,29.08
2022-12-05T04:02:02.580Z,29.20
2022-12-05T04:04:32.679Z,27.50
2022-12-05T04:07:02.242Z,33.70
2022-12-05T04:09:32.646Z,28.63
2022-12-05T04:12:02.370Z,31.52
2022-12-05T04:14:34.126Z,29.15
2022-12-05T04:17:05.756Z,25.10
2022-12-05T04:20:15.016Z,35.90
2022-12-05T04:22:43.566Z,22.63
2022-12-05T04:25:30.677Z,28.70
2022-12-05T04:28:01.344Z,32.60
2022-12-05T04:33:07.922Z,30.33
2022-12-05T04:35:38.344Z,28.73
2022-12-05T04:38:18.399Z,29.02
2022-12-05T04:40:48.943Z,26.02
2022-12-05T04:45:43.541Z,27.73
2022-12-05T04:48:13.339Z,31.77
2022-12-05T04:50:40.882Z,32.15
2022-12-05T04:53:10.325Z,29.63
2022-12-05T04:55:38.044Z,28.98
2022-12-05T04:58:10.538Z,32.50
2022-12-05T05:00:56.386Z,30.63
2022-12-05T05:03:32.302Z,29.75
2022-12-05T05:05:59.797Z,32.42
2022-12-05T05:08:29.154Z,33.40
2022-12-05T05:11:13.974Z,35.90
2022-12-05T05:13:41.210Z,33.42
2022-12-05T05:16:08.535Z,34.67
2022-12-05T05:18:35.741Z,34.88
2022-12-05T05:21:02.897Z,32.75
2022-12-05T05:23:30.100Z,34.60
2022-12-05T05:25:57.538Z,31.88
2022-12-05T05:28:24.695Z,35.80
2022-12-05T05:30:51.936Z,34.13
2022-12-05T05:33:19.197Z,33.22
2022-12-05T05:35:46.619Z,35.13
2022-12-05T05:38:13.761Z,33.55
2022-12-05T05:40:41.496Z,32.45
2022-12-05T05:43:08.684Z,32.15
2022-12-05T05:45:37.491Z,33.33
2022-12-05T05:48:04.781Z,34.45
2022-12-05T05:50:32.017Z,31.38
2022-12-05T05:52:59.349Z,36.53
2022-12-05T05:55:26.546Z,33.38
2022-12-05T05:57:53.796Z,35.85
2022-12-05T06:00:21.001Z,31.45
2022-12-05T06:02:48.268Z,36.78
2022-12-05T06:05:15.877Z,33.40
2022-12-05T06:07:43.312Z,32.03
2022-12-05T06:10:10.889Z,41.40
2022-12-05T06:12:38.074Z,38.20
2022-12-05T06:15:05.526Z,34.22
2022-12-05T06:17:32.822Z,38.58
2022-12-05T06:20:00.187Z,27.60
2022-12-05T06:22:27.700Z,28.63
2022-12-05T06:24:54.886Z,39.13
2022-12-05T06:27:22.282Z,33.85
2022-12-05T06:29:49.465Z,34.25
2022-12-05T06:32:16.804Z,34.97
2022-12-05T06:34:44.049Z,34.20
2022-12-05T06:37:11.251Z,37.03
2022-12-05T06:39:38.850Z,33.85
2022-12-05T06:42:06.119Z,28.45
2022-12-05T06:44:33.431Z,31.73
2022-12-05T06:47:00.578Z,35.28
2022-12-05T06:49:36.331Z,33.55
2022-12-05T06:52:05.187Z,33.67
2022-12-05T06:54:32.378Z,30.08
2022-12-05T06:56:59.608Z,35.30
2022-12-05T06:59:26.946Z,28.20
2022-12-05T07:01:54.093Z,32.03
2022-12-05T07:04:24.429Z,29.35
2022-12-05T07:06:52.604Z,34.90
2022-12-05T07:09:20.986Z,29.25
2022-12-05T07:11:49.085Z,30.95
2022-12-05T07:14:38.797Z,30.05
2022-12-05T07:17:03.924Z,29.25
2022-12-05T07:19:31.056Z,27.45
2022-12-05T07:21:58.209Z,26.20
2022-12-05T07:24:25.357Z,27.90
2022-12-05T07:26:52.606Z,27.27
2022-12-05T07:29:19.871Z,27.92
2022-12-05T07:31:47.174Z,27.73
2022-12-05T07:34:14.535Z,27.48
2022-12-05T07:36:41.737Z,27.90
2022-12-05T07:39:08.950Z,24.50
2022-12-05T07:41:36.167Z,23.85
2022-12-05T07:44:08.900Z,24.95
2022-12-05T07:46:36.163Z,25.75
2022-12-05T07:49:03.397Z,26.13
2022-12-05T07:51:30.636Z,24.85
2022-12-05T07:53:59.402Z,21.88
2022-12-05T07:56:26.600Z,24.00
2022-12-05T07:58:54.250Z,23.45
2022-12-05T08:01:22.735Z,28.30
2022-12-05T08:03:50.362Z,26.13
2022-12-05T08:06:18.727Z,26.55
2022-12-05T08:08:46.142Z,20.50
2022-12-05T08:11:17.672Z,24.83
2022-12-05T08:13:45.687Z,22.65
2022-12-05T08:16:14.188Z,23.35
2022-12-05T08:18:41.889Z,21.13
2022-12-05T08:21:10.617Z,22.90
2022-12-05T08:23:38.412Z,22.48
2022-12-05T08:26:07.824Z,25.80
2022-12-05T08:28:35.477Z,21.67
2022-12-05T08:31:10.125Z,23.23
2022-12-05T08:33:37.973Z,23.45
2022-12-05T08:36:06.397Z,24.17
2022-12-05T08:38:33.711Z,22.63
2022-12-05T08:41:02.103Z,22.73
2022-12-05T08:43:30.127Z,20.65
2022-12-05T08:45:57.402Z,27.65
2022-12-05T08:48:29.198Z,20.60
2022-12-05T08:50:57.394Z,19.90
2022-12-05T08:53:24.676Z,19.40
2022-12-05T08:55:52.234Z,17.95
2022-12-05T08:58:19.424Z,17.42
2022-12-05T09:00:46.837Z,17.15
2022-12-05T09:03:14.130Z,14.13
2022-12-05T09:05:41.498Z,16.70
2022-12-05T09:08:08.699Z,15.05
2022-12-05T09:10:35.925Z,15.65
2022-12-05T09:13:03.107Z,15.00
2022-12-05T09:15:30.295Z,14.60
2022-12-05T09:17:57.618Z,16.63
2022-12-05T09:20:24.821Z,17.48
2022-12-05T09:22:52.889Z,14.25
2022-12-05T09:25:19.975Z,16.58
2022-12-05T09:27:47.294Z,17.55
2022-12-05T09:30:14.952Z,14.10
2022-12-05T09:32:42.261Z,15.10
2022-12-05T09:35:09.517Z,15.82
2022-12-05T09:37:39.698Z,14.07
2022-12-05T09:40:07.942Z,14.98
2022-12-05T09:42:35.054Z,14.85
2022-12-05T09:45:08.567Z,15.85
2022-12-05T09:47:54.669Z,14.75
2022-12-05T09:50:21.928Z,16.00
2022-12-05T09:52:58.359Z,12.02
2022-12-05T09:55:26.233Z,14.48
2022-12-05T09:58:03.636Z,12.95
2022-12-05T10:00:31.471Z,13.80
2022-12-05T10:03:03.681Z,14.88
2022-12-05T10:05:38.486Z,13.27
2022-12-05T10:08:14.633Z,10.95
2022-12-05T10:11:00.706Z,11.85
2022-12-05T10:13:46.180Z,11.80
2022-12-05T10:16:17.733Z,12.40
2022-12-05T10:18:51.219Z,11.40
2022-12-05T10:21:37.189Z,11.27
2022-12-05T10:24:06.365Z,11.18
2022-12-05T10:26:35.289Z,8.60
2022-12-05T10:29:15.838Z,10.02
2022-12-05T10:31:44.243Z,9.07
2022-12-05T10:34:15.705Z,10.00
2022-12-05T10:36:54.379Z,9.40
2022-12-05T10:39:21.478Z,10.23
2022-12-05T10:41:51.713Z,12.50
2022-12-05T10:44:18.910Z,10.57
2022-12-05T10:46:46.341Z,9.57
2022-12-05T10:49:13.660Z,9.95
2022-12-05T10:51:41.182Z,9.07
2022-12-05T10:54:18.059Z,11.13
2022-12-05T10:56:47.019Z,9.50
2022-12-05T10:59:16.277Z,10.35
2022-12-05T11:04:24.362Z,9.98
2022-12-05T11:06:53.013Z,10.38
2022-12-05T11:09:25.365Z,10.45
2022-12-05T11:12:01.602Z,10.93
2022-12-05T11:14:30.116Z,9.85
2022-12-05T11:17:01.958Z,7.93
2022-12-05T11:19:31.261Z,10.77
2022-12-05T11:21:58.846Z,13.13
2022-12-05T11:24:29.345Z,9.07
2022-12-05T11:29:37.526Z,12.88
2022-12-05T11:32:05.613Z,11.32
2022-12-05T11:34:53.330Z,11.75
2022-12-05T11:37:26.590Z,11.50
2022-12-05T11:39:53.794Z,11.15
2022-12-05T11:42:40.385Z,12.07
2022-12-05T11:45:23.220Z,13.55
2022-12-05T11:48:01.903Z,12.60
2022-12-05T11:50:45.523Z,13.07
2022-12-05T11:53:24.833Z,12.38
2022-12-05T11:55:53.997Z,11.93
2022-12-05T11:58:21.383Z,10.73
2022-12-05T12:01:03.742Z,13.13
2022-12-05T12:03:33.433Z,14.15
2022-12-05T12:06:14.467Z,12.80
2022-12-05T12:08:53.867Z,11.68
2022-12-05T12:11:24.236Z,12.35
2022-12-05T12:14:23.866Z,10.27
2022-12-05T12:17:17.044Z,10.35
2022-12-05T12:19:56.031Z,11.95
2022-12-05T12:22:32.357Z,10.80
2022-12-05T12:25:02.557Z,11.93
2022-12-05T12:27:37.685Z,11.68
2022-12-05T12:30:28.535Z,12.73
2022-12-05T12:33:01.789Z,11.70
2022-12-05T12:35:53.463Z,11.45
2022-12-05T12:38:39.600Z,11.63
2022-12-05T12:41:18.094Z,11.45
2022-12-05T12:43:54.483Z,15.77
2022-12-05T12:48:59.475Z,10.68
2022-12-05T12:51:28.162Z,14.35
2022-12-05T12:54:03.193Z,10.32
2022-12-05T12:56:30.804Z,10.15
2022-12-05T12:59:10.985Z,11.07
2022-12-05T13:01:46.109Z,10.98
2022-12-05T13:04:16.649Z,12.77
2022-12-05T13:09:31.474Z,11.55
2022-12-05T13:12:01.509Z,11.70
2022-12-05T13:14:30.786Z,11.30
2022-12-05T13:16:59.365Z,10.45
2022-12-05T13:19:29.721Z,10.70
2022-12-05T13:22:00.258Z,10.30
2022-12-05T13:24:28.741Z,12.75
2022-12-05T13:27:00.579Z,10.48
2022-12-05T13:29:33.013Z,10.75
2022-12-05T13:32:01.776Z,10.77
2022-12-05T13:34:35.653Z,12.88
2022-12-05T13:37:30.064Z,10.88
2022-12-05T13:40:19.619Z,10.48
2022-12-05T13:42:48.232Z,11.55
2022-12-05T13:45:21.256Z,9.90
2022-12-05T13:47:56.209Z,11.32
2022-12-05T13:50:26.554Z,13.73
2022-12-05T13:53:01.560Z,13.98
2022-12-05T13:55:35.564Z,9.13
2022-12-05T13:58:22.252Z,12.90
2022-12-05T14:00:52.847Z,13.07
2022-12-05T14:03:35.385Z,10.07
2022-12-05T14:06:02.522Z,10.30
2022-12-05T14:08:35.836Z,10.35
2022-12-05T14:11:04.137Z,11.02
2022-12-05T14:13:33.550Z,12.90
2022-12-05T14:16:19.325Z,10.23
2022-12-05T14:18:53.146Z,9.85
2022-12-05T14:21:23.652Z,10.00
2022-12-05T14:26:21.936Z,9.60
2022-12-05T14:29:07.734Z,10.52
2022-12-05T14:32:10.455Z,9.85
2022-12-05T14:34:38.508Z,11.77
2022-12-05T14:37:08.906Z,11.25
2022-12-05T14:39:52.138Z,11.13
2022-12-05T14:42:22.338Z,11.82
2022-12-05T14:44:50.305Z,9.65
2022-12-05T14:47:22.419Z,12.60
2022-12-05T14:50:02.801Z,10.05
2022-12-05T14:52:31.990Z,9.93
2022-12-05T14:55:02.192Z,10.23
2022-12-05T14:57:30.332Z,8.88
2022-12-05T15:00:02.910Z,12.38
2022-12-05T15:02:32.841Z,10.60
2022-12-05T15:05:06.511Z,11.25
2022-12-05T15:07:36.445Z,14.85
2022-12-05T15:10:04.529Z,11.75
2022-12-05T15:12:34.940Z,12.20
2022-12-05T15:15:06.187Z,10.38
2022-12-05T15:18:07.005Z,11.48
2022-12-05T15:20:40.662Z,11.05
2022-12-05T15:23:27.042Z,11.38
2022-12-05T15:25:57.210Z,11.57
2022-12-05T15:28:26.358Z,16.25
2022-12-05T15:30:57.217Z,14.40
2022-12-05T15:33:26.425Z,13.30
2022-12-05T15:35:54.578Z,14.25
2022-12-05T15:38:27.726Z,14.57
2022-12-05T15:40:58.613Z,13.57
2022-12-05T15:43:30.815Z,14.57
2022-12-05T15:46:28.053Z,14.38
2022-12-05T15:48:56.510Z,11.07
2022-12-05T15:51:42.529Z,10.40
2022-12-05T15:54:12.626Z,11.38
2022-12-05T15:56:43.249Z,10.68
2022-12-05T15:59:21.617Z,12.95
2022-12-05T16:01:52.469Z,14.90
2022-12-05T16:04:22.591Z,17.08
2022-12-05T16:06:54.158Z,12.73
2022-12-05T16:09:22.793Z,14.90
2022-12-05T16:12:07.963Z,14.20
2022-12-05T16:14:58.904Z,13.68
2022-12-05T16:17:24.072Z,13.73
2022-12-05T16:19:51.695Z,13.75
2022-12-05T16:22:21.971Z,13.77
2022-12-05T16:24:55.450Z,12.32
2022-12-05T16:27:23.922Z,14.02
2022-12-05T16:30:11.057Z,13.75
2022-12-05T16:32:39.787Z,13.75
2022-12-05T16:35:25.693Z,13.57
2022-12-05T16:38:03.250Z,15.30
2022-12-05T16:40:30.512Z,16.83
2022-12-05T16:43:06.418Z,16.77
2022-12-05T16:45:40.905Z,14.38
2022-12-05T16:48:15.385Z,14.57
2022-12-05T16:50:43.663Z,18.83
2022-12-05T16:53:11.124Z,15.23
2022-12-05T16:55:38.969Z,14.75
2022-12-05T16:58:13.996Z,15.18
2022-12-05T17:00:43.964Z,17.83
2022-12-05T17:03:34.030Z,14.35
2022-12-05T17:06:02.282Z,15.75
2022-12-05T17:08:29.463Z,15.05
2022-12-05T17:10:56.705Z,14.15
2022-12-05T17:13:28.580Z,22.70
2022-12-05T17:15:55.916Z,13.35
2022-12-05T17:18:29.572Z,14.32
2022-12-05T17:21:00.163Z,13.90
2022-12-05T17:23:27.533Z,12.50
2022-12-05T17:25:56.002Z,18.52
2022-12-05T17:28:23.689Z,13.30
2022-12-05T17:30:51.063Z,13.07
2022-12-05T17:33:19.603Z,12.10
2022-12-05T17:35:47.077Z,12.75
2022-12-05T17:38:14.466Z,12.13
2022-12-05T17:40:41.686Z,10.63
2022-12-05T17:43:10.889Z,12.52
2022-12-05T17:45:38.094Z,11.85
2022-12-05T17:48:05.326Z,12.25
2022-12-05T17:50:32.783Z,12.15
2022-12-05T17:53:05.770Z,12.32
2022-12-05T17:55:34.443Z,11.18
2022-12-05T17:58:01.623Z,12.75
2022-12-05T18:00:30.992Z,11.25
2022-12-05T18:02:58.379Z,11.10
2022-12-05T18:05:25.670Z,12.68
2022-12-05T18:07:53.182Z,10.80
2022-12-05T18:10:23.342Z,9.23
2022-12-05T18:12:51.224Z,11.23
2022-12-05T18:15:18.664Z,11.25
2022-12-05T18:17:46.003Z,10.15
2022-12-05T18:20:14.496Z,7.18
2022-12-05T18:22:41.889Z,12.05
2022-12-05T18:25:09.630Z,11.63
2022-12-05T18:27:38.182Z,11.98
2022-12-05T18:30:06.173Z,9.00
2022-12-05T18:32:33.619Z,13.02
2022-12-05T18:35:02.244Z,13.98
2022-12-05T18:37:30.483Z,13.35
2022-12-05T18:39:57.859Z,12.20
2022-12-05T18:42:25.065Z,13.75
2022-12-05T18:44:52.711Z,9.68
2022-12-05T18:47:20.411Z,10.43
2022-12-05T18:49:47.530Z,10.93
2022-12-05T18:52:15.345Z,11.55
2022-12-05T18:54:42.723Z,11.43
2022-12-05T18:57:10.168Z,10.90
2022-12-05T18:59:39.546Z,10.50
2022-12-05T19:02:07.235Z,10.38
2022-12-05T19:04:34.691Z,9.30
2022-12-05T19:07:02.264Z,7.75
2022-12-05T19:09:31.056Z,9.15
2022-12-05T19:11:59.683Z,9.70
2022-12-05T19:14:27.826Z,10.18
2022-12-05T19:16:59.937Z,10.30
2022-12-05T19:19:28.434Z,11.60
2022-12-05T19:21:56.028Z,10.60
2022-12-05T19:24:23.373Z,9.60
2022-12-05T19:26:50.621Z,10.55
2022-12-05T19:29:21.069Z,9.55
2022-12-05T19:31:48.390Z,9.85
2022-12-05T19:34:15.647Z,10.40
2022-12-05T19:36:43.909Z,10.88
2022-12-05T19:39:20.935Z,9.80
2022-12-05T19:41:49.178Z,11.05
2022-12-05T19:44:16.578Z,10.80
2022-12-05T19:46:44.015Z,11.18
2022-12-05T19:49:12.219Z,12.35
2022-12-05T19:51:39.928Z,12.70
2022-12-05T19:54:07.786Z,10.73
2022-12-05T19:56:35.775Z,10.52
2022-12-05T19:59:03.675Z,12.02
2022-12-05T20:01:33.002Z,11.02
2022-12-05T20:04:05.259Z,10.43
2022-12-05T20:06:34.055Z,11.07
2022-12-05T20:09:01.970Z,10.52
2022-12-05T20:11:29.522Z,9.50
2022-12-05T20:13:57.510Z,11.55
2022-12-05T20:16:27.126Z,8.73
2022-12-05T20:18:58.265Z,10.52
2022-12-05T20:21:26.150Z,9.45
2022-12-05T20:23:54.635Z,10.02
2022-12-05T20:26:26.424Z,8.40
2022-12-05T20:28:56.286Z,8.93
2022-12-05T20:31:24.611Z,8.50
2022-12-05T20:33:52.647Z,8.13
2022-12-05T20:36:20.812Z,10.55
2022-12-05T20:38:48.433Z,7.75
2022-12-05T20:41:17.101Z,8.30
2022-12-05T20:43:45.265Z,10.45
2022-12-05T20:46:14.694Z,7.20
2022-12-05T20:48:42.392Z,10.20
2022-12-05T20:51:11.970Z,7.28
2022-12-05T20:53:41.317Z,11.98
2022-12-05T20:56:12.509Z,10.40
2022-12-05T20:58:40.304Z,8.05
2022-12-05T21:01:12.773Z,8.00
2022-12-05T21:03:41.873Z,7.65
2022-12-05T21:06:11.166Z,7.78
2022-12-05T21:08:38.370Z,8.18
2022-12-05T21:11:05.982Z,10.73
2022-12-05T21:13:33.558Z,9.25
2022-12-05T21:16:05.042Z,10.00
2022-12-05T21:18:34.155Z,10.02
2022-12-05T21:21:05.888Z,9.45
2022-12-05T21:23:33.572Z,10.02
2022-12-05T21:26:05.618Z,8.18
2022-12-05T21:28:33.657Z,11.02
2022-12-05T21:31:27.574Z,13.13
2022-12-05T21:33:59.595Z,12.45
2022-12-05T21:36:27.878Z,11.27
2022-12-05T21:38:56.485Z,13.18
2022-12-05T21:41:24.322Z,11.07
2022-12-05T21:43:54.997Z,12.15
2022-12-05T21:46:23.368Z,13.15
2022-12-05T21:48:50.671Z,10.50
2022-12-05T21:51:19.401Z,14.43
2022-12-05T21:53:46.568Z,12.27
2022-12-05T21:56:15.627Z,11.75
2022-12-05T21:58:44.662Z,13.60
2022-12-05T22:01:12.952Z,12.13
2022-12-05T22:03:40.575Z,11.65
2022-12-05T22:06:09.107Z,15.88
2022-12-05T22:08:36.571Z,12.10
2022-12-05T22:11:13.982Z,13.05
2022-12-05T22:13:41.604Z,12.60
2022-12-05T22:16:09.352Z,13.35
2022-12-05T22:18:36.645Z,15.32
2022-12-05T22:21:05.692Z,12.68
2022-12-05T22:23:33.164Z,14.23
2022-12-05T22:26:01.846Z,14.40
2022-12-05T22:28:30.285Z,14.98
2022-12-05T22:30:58.710Z,12.00
2022-12-05T22:33:26.499Z,15.32
2022-12-05T22:35:58.199Z,14.18
2022-12-05T22:38:26.597Z,12.57
2022-12-05T22:40:55.133Z,14.10
2022-12-05T22:43:22.666Z,15.55
2022-12-05T22:45:49.904Z,14.93
2022-12-05T22:48:17.307Z,15.43
2022-12-05T22:50:54.686Z,17.05
2022-12-05T22:53:23.103Z,15.57
2022-12-05T22:55:50.626Z,13.02
2022-12-05T22:58:21.363Z,13.85
2022-12-05T23:00:48.719Z,12.38
2022-12-05T23:03:16.071Z,13.13
2022-12-05T23:05:44.205Z,16.05
2022-12-05T23:08:12.585Z,13.77
2022-12-05T23:10:40.426Z,13.23
2022-12-05T23:13:07.977Z,13.10
2022-12-05T23:15:37.710Z,17.45
2022-12-05T23:18:05.135Z,14.05
2022-12-05T23:20:32.566Z,12.25
2022-12-05T23:22:59.762Z,11.95
2022-12-05T23:25:27.082Z,12.80
2022-12-05T23:27:54.385Z,12.30
2022-12-05T23:30:21.800Z,10.50
2022-12-05T23:32:49.061Z,12.38
2022-12-05T23:35:16.502Z,13.85
2022-12-05T23:37:43.687Z,10.98
2022-12-05T23:40:11.041Z,11.90
2022-12-05T23:42:38.863Z,13.85
2022-12-05T23:45:06.779Z,14.32
2022-12-05T23:47:34.130Z,13.02
2022-12-05T23:50:01.681Z,13.95
2022-12-05T23:52:29.106Z,14.93
2022-12-05T23:54:56.443Z,12.07
2022-12-05T23:57:23.766Z,13.70
2022-12-05T23:59:51.374Z,16.35
